Time;durP1;ratioP1;P1;durP2;ratioP2;P2;SDS_P1;SDS_P2;PMS_P1;PMS_P2;Temp;Humidity;BMP_temperature;BMP_pressure;BME280_temperature;BME280_humidity;BME280_pressure;Samples;Min_cycle;Max_cycle;Signal;HPM_P1;HPM_P2
2022/01/24 00:00:39;;;;;;;22.35;13.35;;;;;;;;;;5032165;28;95417;-76
2022/01/24 00:03:06;;;;;;;21.27;12.75;;;;;;;;;;5032169;28;96811;-77
2022/01/24 00:05:33;;;;;;;24.23;13.30;;;;;;;;;;5031457;27;96265;-74
2022/01/24 00:07:59;;;;;;;23.77;14.07;;;;;;;;;;5032328;28;97113;-76
2022/01/24 00:10:27;;;;;;;24.58;13.60;;;;;;;;;;5031512;28;97110;-75
2022/01/24 00:15:37;;;;;;;22.77;13.73;;;;;;;;;;5032027;28;96792;-78
2022/01/24 00:18:09;;;;;;;25.98;13.55;;;;;;;;;;5012020;28;97505;-75
2022/01/24 00:28:51;;;;;;;25.20;13.45;;;;;;;;;;5038961;27;95366;-79
2022/01/24 00:31:17;;;;;;;25.10;14.38;;;;;;;;;;5032851;27;97187;-76
2022/01/24 00:33:44;;;;;;;23.27;13.23;;;;;;;;;;5032367;27;97290;-75
2022/01/24 00:36:10;;;;;;;23.30;13.43;;;;;;;;;;5035743;27;95028;-77
2022/01/24 00:38:36;;;;;;;24.40;13.35;;;;;;;;;;5032005;28;97237;-75
2022/01/24 00:41:04;;;;;;;25.23;14.70;;;;;;;;;;5031352;28;95309;-76
2022/01/24 00:44:06;;;;;;;27.17;15.00;;;;;;;;;;5031558;27;95919;-79
2022/01/24 00:46:31;;;;;;;25.20;14.77;;;;;;;;;;5031040;27;97342;-78
2022/01/24 00:57:03;;;;;;;28.58;15.65;;;;;;;;;;5035225;27;95230;-79
2022/01/24 00:59:29;;;;;;;31.33;15.93;;;;;;;;;;5036407;28;97424;-77
2022/01/24 01:01:56;;;;;;;29.15;15.85;;;;;;;;;;5034593;28;95448;-77
2022/01/24 01:04:28;;;;;;;28.70;16.10;;;;;;;;;;5035222;28;96783;-76
2022/01/24 01:06:56;;;;;;;33.65;15.90;;;;;;;;;;5035469;28;97299;-79
2022/01/24 01:20:26;;;;;;;29.67;16.17;;;;;;;;;;5037012;28;96925;-74
2022/01/24 01:22:52;;;;;;;29.88;16.48;;;;;;;;;;5033429;28;95060;-78
2022/01/24 01:25:18;;;;;;;33.40;17.60;;;;;;;;;;5034238;28;96989;-78
2022/01/24 01:27:47;;;;;;;36.45;17.30;;;;;;;;;;5034773;27;97292;-77
2022/01/24 01:30:21;;;;;;;30.48;16.23;;;;;;;;;;5032281;28;97200;-73
2022/01/24 01:33:00;;;;;;;32.47;17.35;;;;;;;;;;5034256;28;96792;-73
2022/01/24 01:38:19;;;;;;;30.58;16.27;;;;;;;;;;5035032;28;95058;-74
2022/01/24 01:54:49;;;;;;;32.28;16.85;;;;;;;;;;5034415;28;96912;-76
2022/01/24 01:57:18;;;;;;;34.53;18.17;;;;;;;;;;5032284;28;97272;-77
2022/01/24 01:59:45;;;;;;;32.13;18.00;;;;;;;;;;5034395;27;95707;-76
2022/01/24 02:02:11;;;;;;;30.63;17.23;;;;;;;;;;5033132;28;96812;-78
2022/01/24 02:04:38;;;;;;;34.03;18.08;;;;;;;;;;5033914;27;97283;-73
2022/01/24 02:07:04;;;;;;;33.45;18.15;;;;;;;;;;5036651;28;95327;-75
2022/01/24 02:09:31;;;;;;;31.75;18.48;;;;;;;;;;5033317;27;97120;-73
2022/01/24 02:11:58;;;;;;;31.85;17.90;;;;;;;;;;5033146;27;95382;-78
2022/01/24 02:14:31;;;;;;;36.05;19.42;;;;;;;;;;5032935;27;96990;-73
2022/01/24 02:17:03;;;;;;;37.75;21.38;;;;;;;;;;5032407;28;98017;-75
2022/01/24 02:19:52;;;;;;;40.00;22.83;;;;;;;;;;5033630;28;95302;-75
2022/01/24 02:25:01;;;;;;;38.20;22.70;;;;;;;;;;5033572;28;97697;-77
2022/01/24 02:27:40;;;;;;;37.10;21.95;;;;;;;;;;5045346;27;95226;-75
2022/01/24 02:30:24;;;;;;;40.95;23.02;;;;;;;;;;5040914;27;96860;-79
2022/01/24 02:32:51;;;;;;;40.42;23.13;;;;;;;;;;5032574;27;95170;-79
2022/01/24 02:35:17;;;;;;;44.85;23.40;;;;;;;;;;5033549;27;95695;-76
2022/01/24 02:37:43;;;;;;;45.95;24.23;;;;;;;;;;5033426;28;97635;-77
2022/01/24 02:40:17;;;;;;;42.40;23.13;;;;;;;;;;5013038;28;95354;-77
2022/01/24 02:48:26;;;;;;;45.08;24.63;;;;;;;;;;5013485;28;96182;-75
2022/01/24 02:53:33;;;;;;;46.00;24.25;;;;;;;;;;5030234;28;97255;-77
2022/01/24 02:56:00;;;;;;;47.05;25.25;;;;;;;;;;5032298;27;96825;-76
2022/01/24 02:58:28;;;;;;;43.75;24.95;;;;;;;;;;5032447;28;97321;-78
2022/01/24 03:00:54;;;;;;;46.17;25.35;;;;;;;;;;5032645;28;95350;-76
2022/01/24 03:03:21;;;;;;;48.95;26.70;;;;;;;;;;5031424;27;96831;-76
2022/01/24 03:05:48;;;;;;;47.05;28.30;;;;;;;;;;5031132;27;97398;-79
2022/01/24 03:08:15;;;;;;;51.40;28.80;;;;;;;;;;5027232;28;97145;-75
2022/01/24 03:10:45;;;;;;;51.13;28.88;;;;;;;;;;5033486;28;97156;-76
2022/01/24 03:15:48;;;;;;;50.08;28.63;;;;;;;;;;5036192;28;95594;-79
2022/01/24 03:18:15;;;;;;;54.00;29.80;;;;;;;;;;5033006;28;97317;-78
2022/01/24 03:20:42;;;;;;;50.75;29.10;;;;;;;;;;5034420;28;95420;-79
2022/01/24 03:23:08;;;;;;;57.67;30.52;;;;;;;;;;5044946;27;96734;-75
2022/01/24 03:25:34;;;;;;;56.92;30.58;;;;;;;;;;5046305;28;97519;-77
2022/01/24 03:28:03;;;;;;;55.97;31.55;;;;;;;;;;5041296;28;95115;-80
2022/01/24 03:30:30;;;;;;;51.40;28.85;;;;;;;;;;5030232;28;96773;-79
2022/01/24 03:32:56;;;;;;;55.50;30.38;;;;;;;;;;5032819;27;97271;-79
2022/01/24 03:35:22;;;;;;;56.05;30.58;;;;;;;;;;5036016;28;95333;-80
2022/01/24 03:37:49;;;;;;;58.22;31.10;;;;;;;;;;5033570;27;97375;-79
2022/01/24 03:40:15;;;;;;;53.60;29.58;;;;;;;;;;5033280;28;95313;-78
2022/01/24 03:42:41;;;;;;;53.50;30.67;;;;;;;;;;5032145;27;96771;-77
2022/01/24 03:45:10;;;;;;;52.80;29.80;;;;;;;;;;5032958;27;97385;-79
2022/01/24 03:48:04;;;;;;;52.03;30.10;;;;;;;;;;5033201;28;95391;-78
2022/01/24 03:50:30;;;;;;;54.40;30.08;;;;;;;;;;5032079;28;96016;-79
2022/01/24 03:52:56;;;;;;;58.92;31.45;;;;;;;;;;5031639;27;97317;-75
2022/01/24 03:55:23;;;;;;;57.47;31.98;;;;;;;;;;5032606;27;95073;-75
2022/01/24 03:57:49;;;;;;;54.63;30.20;;;;;;;;;;5035356;27;96806;-75
2022/01/24 04:00:15;;;;;;;55.10;31.05;;;;;;;;;;5031373;28;95363;-74
2022/01/24 04:02:42;;;;;;;58.55;32.33;;;;;;;;;;5032547;27;97166;-76
2022/01/24 04:05:09;;;;;;;57.40;33.17;;;;;;;;;;5030923;27;97327;-76
2022/01/24 04:07:38;;;;;;;56.95;32.85;;;;;;;;;;5032651;28;95297;-78
2022/01/24 04:10:08;;;;;;;58.10;33.08;;;;;;;;;;5031476;27;96755;-75
2022/01/24 04:12:39;;;;;;;57.53;32.85;;;;;;;;;;5030193;28;97718;-75
2022/01/24 04:18:26;;;;;;;61.25;33.60;;;;;;;;;;5032256;28;96650;-76
2022/01/24 04:23:40;;;;;;;56.50;31.20;;;;;;;;;;5032471;28;96892;-75
2022/01/24 04:26:07;;;;;;;56.22;32.45;;;;;;;;;;5029364;28;97427;-76
2022/01/24 04:28:33;;;;;;;57.60;32.22;;;;;;;;;;5031467;28;95372;-75
2022/01/24 04:31:00;;;;;;;55.80;32.25;;;;;;;;;;5030415;28;96850;-79
2022/01/24 04:33:26;;;;;;;58.78;33.03;;;;;;;;;;5028016;27;97187;-75
2022/01/24 04:35:56;;;;;;;57.22;32.55;;;;;;;;;;5017904;27;95331;-77
2022/01/24 04:38:23;;;;;;;55.10;32.42;;;;;;;;;;5028161;27;97372;-75
2022/01/24 04:40:50;;;;;;;59.13;33.13;;;;;;;;;;5026872;27;97325;-77
2022/01/24 04:51:56;;;;;;;56.10;32.60;;;;;;;;;;5031108;28;96845;-77
2022/01/24 04:54:39;;;;;;;57.03;32.63;;;;;;;;;;5030860;27;96224;-79
2022/01/24 04:57:10;;;;;;;55.40;31.92;;;;;;;;;;5031952;28;95184;-77
2022/01/24 04:59:37;;;;;;;57.63;33.20;;;;;;;;;;5030952;28;95712;-76
2022/01/24 05:02:04;;;;;;;61.92;33.30;;;;;;;;;;5030848;28;97657;-79
2022/01/24 05:04:30;;;;;;;56.88;33.20;;;;;;;;;;5031784;27;95275;-78
2022/01/24 05:06:57;;;;;;;60.13;32.85;;;;;;;;;;5034310;28;96858;-75
2022/01/24 05:09:24;;;;;;;63.58;34.30;;;;;;;;;;5030946;28;95348;-79
2022/01/24 05:11:56;;;;;;;56.45;32.60;;;;;;;;;;5031645;27;96454;-77
2022/01/24 05:25:23;;;;;;;62.15;34.65;;;;;;;;;;5031322;27;95230;-75
2022/01/24 05:27:52;;;;;;;60.83;33.85;;;;;;;;;;5025805;28;96246;-78
2022/01/24 05:30:19;;;;;;;61.25;33.65;;;;;;;;;;5032416;28;95440;-78
2022/01/24 05:32:47;;;;;;;58.67;33.00;;;;;;;;;;5030041;28;97025;-74
2022/01/24 05:35:14;;;;;;;61.63;33.55;;;;;;;;;;5030842;27;97500;-79
2022/01/24 05:37:40;;;;;;;61.83;34.63;;;;;;;;;;5019260;27;95356;-79
2022/01/24 05:40:07;;;;;;;58.88;33.53;;;;;;;;;;5031968;28;96855;-79
2022/01/24 05:42:35;;;;;;;60.80;34.72;;;;;;;;;;5033644;28;97808;-78
2022/01/24 05:45:04;;;;;;;62.53;34.00;;;;;;;;;;5030280;28;96686;-78
2022/01/24 05:47:31;;;;;;;63.08;33.22;;;;;;;;;;5037070;28;96904;-76
2022/01/24 05:49:57;;;;;;;61.90;34.10;;;;;;;;;;5047551;28;96724;-79
2022/01/24 05:52:24;;;;;;;64.40;34.63;;;;;;;;;;5042093;27;97053;-76
2022/01/24 05:54:50;;;;;;;61.97;32.25;;;;;;;;;;5041147;28;96169;-76
2022/01/24 05:57:16;;;;;;;57.65;33.05;;;;;;;;;;5034095;28;95309;-75
2022/01/24 05:59:43;;;;;;;53.63;31.55;;;;;;;;;;5061777;27;96952;-79
2022/01/24 06:02:09;;;;;;;59.25;33.45;;;;;;;;;;5042223;27;97362;-78
2022/01/24 06:04:35;;;;;;;61.88;33.42;;;;;;;;;;5030320;28;95418;-78
2022/01/24 06:07:02;;;;;;;60.80;33.78;;;;;;;;;;5033075;28;96922;-79
2022/01/24 06:09:28;;;;;;;54.47;31.17;;;;;;;;;;5030849;27;97310;-80
2022/01/24 06:11:55;;;;;;;58.55;30.88;;;;;;;;;;5040632;27;95292;-73
2022/01/24 06:14:21;;;;;;;54.28;30.23;;;;;;;;;;5031625;27;97251;-74
2022/01/24 06:16:48;;;;;;;54.42;30.95;;;;;;;;;;5032919;27;95687;-74
2022/01/24 06:19:14;;;;;;;51.15;30.05;;;;;;;;;;5030722;27;97438;-75
2022/01/24 06:21:41;;;;;;;55.65;31.20;;;;;;;;;;5033600;27;97358;-73
2022/01/24 06:24:08;;;;;;;51.22;30.05;;;;;;;;;;5032008;27;95421;-74
2022/01/24 06:26:34;;;;;;;56.30;31.10;;;;;;;;;;5033417;27;97190;-73
2022/01/24 06:29:01;;;;;;;53.05;29.42;;;;;;;;;;5032676;27;97332;-74
2022/01/24 06:31:27;;;;;;;48.35;27.58;;;;;;;;;;5032595;27;96117;-73
2022/01/24 06:33:54;;;;;;;51.05;28.92;;;;;;;;;;5034915;27;96881;-74
2022/01/24 06:36:20;;;;;;;50.90;27.48;;;;;;;;;;5030553;27;95520;-75
2022/01/24 06:38:46;;;;;;;49.20;27.98;;;;;;;;;;5026763;27;97240;-73
2022/01/24 06:41:21;;;;;;;45.17;27.33;;;;;;;;;;5034258;27;97427;-76
2022/01/24 06:43:47;;;;;;;46.33;28.08;;;;;;;;;;5031018;27;95328;-78
2022/01/24 06:46:14;;;;;;;49.67;27.67;;;;;;;;;;5028877;27;96810;-77
2022/01/24 06:48:40;;;;;;;49.72;26.65;;;;;;;;;;5029587;27;97348;-75
2022/01/24 06:51:11;;;;;;;45.40;26.08;;;;;;;;;;5021425;27;96641;-79
2022/01/24 06:53:38;;;;;;;43.17;26.40;;;;;;;;;;5031927;27;96132;-81
2022/01/24 06:56:05;;;;;;;45.03;28.13;;;;;;;;;;5036047;27;97476;-80
2022/01/24 06:58:32;;;;;;;49.00;27.63;;;;;;;;;;5029167;27;96811;-79
2022/01/24 07:00:58;;;;;;;45.83;27.02;;;;;;;;;;5031388;27;97416;-80
2022/01/24 07:03:25;;;;;;;48.67;28.13;;;;;;;;;;5031548;27;95365;-80
2022/01/24 07:05:51;;;;;;;48.75;28.65;;;;;;;;;;5032115;27;96757;-79
2022/01/24 07:08:18;;;;;;;48.83;26.67;;;;;;;;;;5031414;27;97635;-79
2022/01/24 07:10:45;;;;;;;47.70;27.83;;;;;;;;;;5028417;27;95342;-80
2022/01/24 07:13:11;;;;;;;51.55;27.65;;;;;;;;;;5028572;27;99392;-79
2022/01/24 07:15:46;;;;;;;50.03;27.95;;;;;;;;;;5031064;27;97328;-80
2022/01/24 07:20:42;;;;;;;50.03;27.90;;;;;;;;;;5031936;27;97106;-80
2022/01/24 07:23:08;;;;;;;51.67;28.00;;;;;;;;;;5031980;27;95393;-77
2022/01/24 07:25:35;;;;;;;48.70;27.42;;;;;;;;;;5031828;27;96824;-80
2022/01/24 07:28:01;;;;;;;48.78;28.05;;;;;;;;;;5031625;27;97369;-79
2022/01/24 16:09:27;;;;;;;36.38;22.77;;;;;;;;;;5081064;27;97262;-73
2022/01/24 16:11:53;;;;;;;43.28;27.20;;;;;;;;;;5068413;27;97617;-74
2022/01/24 16:14:25;;;;;;;52.83;30.35;;;;;;;;;;5066861;27;95391;-74
2022/01/24 16:16:52;;;;;;;54.28;31.77;;;;;;;;;;5066753;27;96774;-74
2022/01/24 16:19:20;;;;;;;51.42;28.85;;;;;;;;;;5063439;27;97463;-74
2022/01/24 16:22:45;;;;;;;44.50;28.08;;;;;;;;;;5066736;27;97239;-73
2022/01/24 16:27:38;;;;;;;39.63;25.90;;;;;;;;;;5067831;27;97113;-74
2022/01/24 16:30:05;;;;;;;40.92;26.42;;;;;;;;;;5071221;27;95129;-75
2022/01/24 16:32:31;;;;;;;41.63;27.48;;;;;;;;;;5062349;27;97254;-74
2022/01/24 16:34:58;;;;;;;39.13;27.20;;;;;;;;;;5070392;27;94985;-75
2022/01/24 16:37:25;;;;;;;41.88;28.17;;;;;;;;;;5069655;27;96776;-74
2022/01/24 16:39:52;;;;;;;37.03;26.95;;;;;;;;;;5068315;27;98031;-76
2022/01/24 16:42:40;;;;;;;37.47;25.73;;;;;;;;;;5074389;27;95609;-76
2022/01/24 16:47:03;;;;;;;38.53;27.03;;;;;;;;;;5068453;27;96955;-76
2022/01/24 16:48:12;;;;;;;39.70;26.50;;;;;;;;;;5067887;27;97367;-75
2022/01/24 16:50:39;;;;;;;40.92;26.52;;;;;;;;;;5064711;27;95324;-75
2022/01/24 16:53:12;;;;;;;41.17;26.27;;;;;;;;;;5070988;27;96797;-76
2022/01/24 16:55:38;;;;;;;80.43;57.15;;;;;;;;;;5067045;27;95168;-77
2022/01/24 16:58:05;;;;;;;55.53;38.33;;;;;;;;;;5067318;27;96727;-77
2022/01/24 17:00:31;;;;;;;52.85;29.10;;;;;;;;;;5071133;27;97734;-76
2022/01/24 17:02:58;;;;;;;44.47;27.98;;;;;;;;;;5069421;27;95721;-76
2022/01/24 17:05:24;;;;;;;40.00;27.65;;;;;;;;;;5066920;27;96971;-76
2022/01/24 17:07:50;;;;;;;46.50;30.60;;;;;;;;;;5056155;27;97655;-77
2022/01/24 17:10:17;;;;;;;52.28;32.25;;;;;;;;;;5067914;27;95399;-77
2022/01/24 17:12:49;;;;;;;47.72;29.45;;;;;;;;;;5062486;27;96674;-76
2022/01/24 17:15:18;;;;;;;73.20;40.30;;;;;;;;;;5083212;27;97062;-78
2022/01/24 17:17:44;;;;;;;43.97;29.40;;;;;;;;;;5057479;27;96786;-78
2022/01/24 17:20:11;;;;;;;37.53;27.50;;;;;;;;;;5061930;27;97452;-77
2022/01/24 17:22:37;;;;;;;41.45;28.17;;;;;;;;;;5057252;27;95403;-76
2022/01/24 17:25:04;;;;;;;41.33;28.30;;;;;;;;;;5046179;27;96884;-77
2022/01/24 17:27:31;;;;;;;43.30;28.45;;;;;;;;;;5047439;27;97411;-75
2022/01/24 17:29:57;;;;;;;42.05;28.13;;;;;;;;;;5052984;27;95126;-78
2022/01/24 17:32:44;;;;;;;40.78;27.67;;;;;;;;;;5048984;27;98250;-75
2022/01/24 17:35:10;;;;;;;39.03;27.60;;;;;;;;;;5053434;27;97283;-78
2022/01/24 17:37:37;;;;;;;40.63;27.92;;;;;;;;;;5054937;27;95335;-75
2022/01/24 17:40:05;;;;;;;44.97;27.50;;;;;;;;;;5052449;27;97272;-75
2022/01/24 17:42:32;;;;;;;47.28;28.25;;;;;;;;;;5052951;27;95346;-75
2022/01/24 17:44:58;;;;;;;43.25;28.75;;;;;;;;;;5034506;27;96942;-75
2022/01/24 17:47:24;;;;;;;45.60;28.95;;;;;;;;;;5057210;27;96947;-74
2022/01/24 17:49:51;;;;;;;43.00;29.00;;;;;;;;;;5044573;27;96799;-74
2022/01/24 17:52:18;;;;;;;45.70;29.40;;;;;;;;;;5039525;27;96540;-75
2022/01/24 17:54:45;;;;;;;42.50;28.45;;;;;;;;;;5055826;27;97337;-75
2022/01/24 17:57:11;;;;;;;42.03;28.23;;;;;;;;;;5038805;27;95323;-75
2022/01/24 17:59:37;;;;;;;55.70;29.55;;;;;;;;;;5058031;27;97090;-76
2022/01/24 18:02:04;;;;;;;41.25;29.15;;;;;;;;;;5048258;27;95661;-76
2022/01/24 18:04:31;;;;;;;40.13;28.70;;;;;;;;;;5043275;27;96768;-76
2022/01/24 18:07:00;;;;;;;44.25;29.67;;;;;;;;;;5051453;27;97329;-77
2022/01/24 18:09:29;;;;;;;53.72;31.20;;;;;;;;;;5051760;27;95338;-78
2022/01/24 18:11:55;;;;;;;45.13;30.80;;;;;;;;;;5053153;27;96733;-77
2022/01/24 18:14:22;;;;;;;53.08;32.45;;;;;;;;;;5051885;27;97703;-76
2022/01/24 18:16:48;;;;;;;51.58;30.90;;;;;;;;;;5048276;27;95456;-77
2022/01/24 18:19:15;;;;;;;48.63;32.47;;;;;;;;;;5042686;27;97005;-76
2022/01/24 18:21:42;;;;;;;46.92;31.02;;;;;;;;;;5036351;27;95276;-75
2022/01/24 18:24:08;;;;;;;53.38;32.25;;;;;;;;;;5053943;27;96699;-76
2022/01/24 18:26:35;;;;;;;49.60;31.88;;;;;;;;;;5053481;27;97825;-76
2022/01/24 18:29:01;;;;;;;48.83;31.70;;;;;;;;;;5051814;27;95347;-76
2022/01/24 18:31:28;;;;;;;54.17;33.58;;;;;;;;;;5041947;27;96704;-75
2022/01/24 18:33:54;;;;;;;56.65;34.63;;;;;;;;;;5051378;27;96326;-76
2022/01/24 18:36:20;;;;;;;52.63;33.80;;;;;;;;;;5057461;27;95105;-78
2022/01/24 18:38:47;;;;;;;54.25;33.78;;;;;;;;;;5051823;27;96772;-76
2022/01/24 18:41:13;;;;;;;52.38;34.35;;;;;;;;;;5055340;27;96245;-76
2022/01/24 18:43:40;;;;;;;49.45;32.72;;;;;;;;;;5039017;27;95610;-77
2022/01/24 18:46:07;;;;;;;53.67;33.65;;;;;;;;;;5050476;27;97319;-76
2022/01/24 18:48:34;;;;;;;51.80;33.60;;;;;;;;;;5027378;27;95345;-75
2022/01/24 18:51:00;;;;;;;51.13;32.67;;;;;;;;;;5052013;27;96586;-76
2022/01/24 18:53:27;;;;;;;56.40;34.80;;;;;;;;;;5051211;27;97481;-77
2022/01/24 18:55:53;;;;;;;47.70;31.95;;;;;;;;;;5052311;27;95984;-76
2022/01/24 18:58:19;;;;;;;57.95;34.10;;;;;;;;;;5051261;27;96893;-75
2022/01/24 19:00:46;;;;;;;66.97;35.80;;;;;;;;;;5034327;27;98495;-75
2022/01/24 19:03:17;;;;;;;56.85;34.47;;;;;;;;;;5037378;27;96317;-76
2022/01/24 19:05:47;;;;;;;54.77;33.97;;;;;;;;;;5036476;27;96667;-76
2022/01/24 19:08:16;;;;;;;53.95;34.15;;;;;;;;;;5050881;27;97062;-76
2022/01/24 19:10:48;;;;;;;53.95;34.50;;;;;;;;;;5052126;27;96613;-76
2022/01/24 19:13:17;;;;;;;56.28;35.17;;;;;;;;;;5050357;27;96997;-77
2022/01/24 19:15:44;;;;;;;55.75;35.90;;;;;;;;;;5043206;27;95214;-76
2022/01/24 19:23:27;;;;;;;58.50;36.38;;;;;;;;;;5050673;27;96384;-76
2022/01/24 19:26:03;;;;;;;63.40;38.45;;;;;;;;;;5054940;27;96768;-76
2022/01/24 19:28:33;;;;;;;60.40;36.60;;;;;;;;;;5043488;27;96786;-77
2022/01/24 19:31:00;;;;;;;58.88;37.00;;;;;;;;;;5050893;27;96774;-77
2022/01/24 19:33:27;;;;;;;64.90;39.15;;;;;;;;;;5035535;27;97304;-76
2022/01/24 19:35:54;;;;;;;59.40;37.33;;;;;;;;;;5053273;27;95678;-77
2022/01/24 19:38:21;;;;;;;60.15;38.67;;;;;;;;;;5058463;27;96951;-77
2022/01/24 19:40:47;;;;;;;61.15;36.70;;;;;;;;;;5053354;27;97930;-76
2022/01/24 19:43:15;;;;;;;57.95;35.33;;;;;;;;;;5059568;27;95478;-76
2022/01/24 19:45:42;;;;;;;58.22;36.65;;;;;;;;;;5059114;27;96811;-76
2022/01/24 19:48:08;;;;;;;56.55;34.55;;;;;;;;;;5046117;27;97294;-77
2022/01/24 19:50:37;;;;;;;57.63;36.08;;;;;;;;;;5049898;27;96963;-77
2022/01/24 19:53:06;;;;;;;57.85;35.47;;;;;;;;;;5065568;27;97883;-77
2022/01/24 19:55:37;;;;;;;58.90;37.47;;;;;;;;;;5051972;27;95387;-77
2022/01/24 19:58:12;;;;;;;59.10;37.40;;;;;;;;;;5062068;27;96665;-76
2022/01/24 20:00:40;;;;;;;59.17;37.10;;;;;;;;;;5058678;27;97456;-77
2022/01/24 20:03:07;;;;;;;60.42;37.08;;;;;;;;;;5059448;27;95510;-77
2022/01/24 20:05:33;;;;;;;60.80;36.53;;;;;;;;;;5034332;27;97916;-77
2022/01/24 20:08:00;;;;;;;58.42;35.97;;;;;;;;;;5050049;27;97547;-78
2022/01/24 20:10:26;;;;;;;57.70;34.88;;;;;;;;;;5054666;27;95347;-76
2022/01/24 20:12:53;;;;;;;57.63;35.90;;;;;;;;;;5057148;27;97237;-75
2022/01/24 20:15:19;;;;;;;57.25;34.00;;;;;;;;;;5045404;27;95492;-76
2022/01/24 20:17:46;;;;;;;59.42;35.88;;;;;;;;;;5042059;27;96186;-76
2022/01/24 20:20:12;;;;;;;56.15;34.60;;;;;;;;;;5051051;27;97348;-76
2022/01/24 20:22:38;;;;;;;57.65;35.35;;;;;;;;;;5057192;27;95329;-75
2022/01/24 20:25:05;;;;;;;58.90;35.63;;;;;;;;;;5051741;27;96876;-74
2022/01/24 20:27:31;;;;;;;56.30;34.65;;;;;;;;;;5051327;27;96834;-76
2022/01/24 20:29:58;;;;;;;63.70;34.75;;;;;;;;;;5054542;27;96103;-75
2022/01/24 20:32:24;;;;;;;55.85;35.28;;;;;;;;;;5055987;27;96976;-76
2022/01/24 20:34:51;;;;;;;59.40;35.05;;;;;;;;;;5051959;27;95414;-75
2022/01/24 20:37:17;;;;;;;54.20;34.70;;;;;;;;;;5063142;27;96800;-75
2022/01/24 20:39:44;;;;;;;57.30;35.80;;;;;;;;;;5051782;27;97339;-75
2022/01/24 20:42:10;;;;;;;57.22;35.33;;;;;;;;;;5051376;27;95387;-75
2022/01/24 20:44:36;;;;;;;65.82;38.90;;;;;;;;;;5064384;27;96844;-75
2022/01/24 20:47:04;;;;;;;63.80;38.33;;;;;;;;;;5056727;27;97312;-75
2022/01/24 20:49:32;;;;;;;56.33;34.85;;;;;;;;;;5062392;27;95351;-76
2022/01/24 20:51:58;;;;;;;53.88;34.20;;;;;;;;;;5062560;27;96818;-75
2022/01/24 20:54:25;;;;;;;60.05;36.05;;;;;;;;;;5065176;27;95264;-76
2022/01/24 20:56:51;;;;;;;59.88;35.78;;;;;;;;;;5061569;27;96765;-77
2022/01/24 20:59:17;;;;;;;62.80;37.72;;;;;;;;;;5047999;27;97219;-75
2022/01/24 21:01:44;;;;;;;59.15;35.38;;;;;;;;;;5061318;27;95417;-74
2022/01/24 21:04:10;;;;;;;58.17;36.22;;;;;;;;;;5064221;27;95939;-75
2022/01/24 21:06:38;;;;;;;61.90;37.78;;;;;;;;;;5062578;27;97197;-74
2022/01/24 21:09:14;;;;;;;59.92;36.97;;;;;;;;;;5062701;27;95345;-75
2022/01/24 21:11:51;;;;;;;63.15;37.10;;;;;;;;;;5057827;27;96822;-75
2022/01/24 21:14:17;;;;;;;62.13;36.95;;;;;;;;;;5051794;27;97506;-75
2022/01/24 21:16:43;;;;;;;61.63;36.97;;;;;;;;;;5043777;27;97197;-75
2022/01/24 21:19:10;;;;;;;62.65;37.45;;;;;;;;;;5036132;27;97356;-76
2022/01/24 21:21:36;;;;;;;62.03;36.40;;;;;;;;;;5060473;27;95419;-75
2022/01/24 21:24:03;;;;;;;61.35;36.28;;;;;;;;;;5063274;27;96813;-74
2022/01/24 21:26:29;;;;;;;60.42;37.30;;;;;;;;;;5063768;27;95921;-75
2022/01/24 21:28:55;;;;;;;65.07;38.15;;;;;;;;;;5069065;27;95459;-75
2022/01/24 21:31:37;;;;;;;63.20;38.20;;;;;;;;;;5048189;27;97234;-75
2022/01/24 21:36:30;;;;;;;61.55;37.25;;;;;;;;;;5069615;27;95344;-76
2022/01/24 21:39:05;;;;;;;60.53;37.78;;;;;;;;;;5039379;27;97518;-75
2022/01/24 21:41:31;;;;;;;62.13;37.30;;;;;;;;;;5060099;27;95302;-76
2022/01/24 21:43:58;;;;;;;63.22;38.42;;;;;;;;;;5055504;27;97162;-75
2022/01/24 21:46:28;;;;;;;65.72;36.65;;;;;;;;;;5048190;27;97488;-75
2022/01/24 21:48:54;;;;;;;64.93;37.60;;;;;;;;;;5054749;27;95395;-75
2022/01/24 21:51:22;;;;;;;64.20;38.83;;;;;;;;;;5059605;27;97042;-75
2022/01/24 21:53:49;;;;;;;64.43;38.78;;;;;;;;;;5060115;27;97424;-75
2022/01/24 21:56:15;;;;;;;64.97;38.58;;;;;;;;;;5067038;27;95297;-76
2022/01/24 21:58:41;;;;;;;64.20;37.78;;;;;;;;;;5045179;27;96807;-75
2022/01/24 22:01:07;;;;;;;67.22;38.00;;;;;;;;;;5055720;27;95362;-75
2022/01/24 22:03:34;;;;;;;62.33;38.55;;;;;;;;;;5055267;27;95500;-75
2022/01/24 22:06:00;;;;;;;65.90;37.42;;;;;;;;;;5061552;27;97515;-74
2022/01/24 22:08:51;;;;;;;65.50;38.35;;;;;;;;;;5066277;27;95289;-76
2022/01/24 22:11:15;;;;;;;61.78;38.10;;;;;;;;;;5057293;27;95783;-75
2022/01/24 22:13:42;;;;;;;62.70;38.20;;;;;;;;;;5057004;27;96474;-75
2022/01/24 22:16:08;;;;;;;64.97;36.75;;;;;;;;;;5065786;27;95385;-76
2022/01/24 22:18:34;;;;;;;67.75;37.90;;;;;;;;;;5035713;27;96829;-76
2022/01/24 22:21:01;;;;;;;66.07;38.45;;;;;;;;;;5066562;27;97111;-74
2022/01/24 22:23:32;;;;;;;64.90;37.72;;;;;;;;;;5056926;27;96822;-76
2022/01/24 22:25:58;;;;;;;69.32;39.45;;;;;;;;;;5056438;27;97377;-75
2022/01/24 22:28:25;;;;;;;69.07;39.05;;;;;;;;;;5063209;27;95214;-76
2022/01/24 22:30:51;;;;;;;65.43;38.25;;;;;;;;;;5064040;27;96939;-76
2022/01/24 22:33:18;;;;;;;65.78;38.22;;;;;;;;;;5059605;27;97264;-75
2022/01/24 22:35:44;;;;;;;63.38;37.83;;;;;;;;;;5041996;27;95684;-74
2022/01/24 22:38:11;;;;;;;64.25;37.72;;;;;;;;;;5066220;27;95828;-76
2022/01/24 22:40:38;;;;;;;68.18;37.13;;;;;;;;;;5067166;27;98467;-74
2022/01/24 22:43:04;;;;;;;62.97;37.72;;;;;;;;;;5059950;27;97100;-76
2022/01/24 22:45:30;;;;;;;66.20;38.42;;;;;;;;;;5038800;27;97316;-74
2022/01/24 22:47:58;;;;;;;59.88;35.72;;;;;;;;;;5062365;27;95102;-75
2022/01/24 22:50:24;;;;;;;68.45;37.95;;;;;;;;;;5060319;27;97139;-74
2022/01/24 22:52:51;;;;;;;61.70;36.65;;;;;;;;;;5056277;27;97825;-75
2022/01/24 22:55:17;;;;;;;65.93;36.40;;;;;;;;;;5064576;27;95167;-75
2022/01/24 22:57:43;;;;;;;64.75;38.50;;;;;;;;;;5057216;27;97204;-76
2022/01/24 23:00:22;;;;;;;64.25;38.03;;;;;;;;;;5065553;27;97235;-76
2022/01/24 23:02:48;;;;;;;67.55;38.53;;;;;;;;;;5052919;27;95238;-75
2022/01/24 23:05:14;;;;;;;64.82;37.97;;;;;;;;;;5054401;27;97442;-75
2022/01/24 23:07:41;;;;;;;64.60;36.85;;;;;;;;;;5052429;27;95301;-76
2022/01/24 23:10:07;;;;;;;61.53;36.00;;;;;;;;;;5052402;27;98526;-75
2022/01/24 23:12:35;;;;;;;65.68;37.08;;;;;;;;;;5051762;27;97350;-76
2022/01/24 23:17:56;;;;;;;65.32;36.80;;;;;;;;;;5053635;27;96742;-76
2022/01/24 23:20:22;;;;;;;64.43;37.72;;;;;;;;;;5056639;27;97489;-75
2022/01/24 23:22:54;;;;;;;62.47;36.10;;;;;;;;;;5064800;27;95291;-75
2022/01/24 23:25:21;;;;;;;64.82;37.17;;;;;;;;;;5060488;27;95778;-75
2022/01/24 23:27:49;;;;;;;64.15;37.30;;;;;;;;;;5038458;27;95301;-76
2022/01/24 23:30:21;;;;;;;62.95;37.00;;;;;;;;;;5053461;27;96913;-76
2022/01/24 23:33:01;;;;;;;63.75;36.83;;;;;;;;;;5064424;27;97367;-76
2022/01/24 23:43:29;;;;;;;64.38;37.25;;;;;;;;;;5053859;27;96971;-74
2022/01/24 23:45:59;;;;;;;65.50;37.00;;;;;;;;;;5034298;27;97585;-75
2022/01/24 23:48:25;;;;;;;63.70;37.03;;;;;;;;;;5069465;27;97718;-74
2022/01/24 23:50:52;;;;;;;65.93;37.28;;;;;;;;;;5056644;27;96940;-75
2022/01/24 23:53:18;;;;;;;66.95;37.50;;;;;;;;;;5063923;27;97564;-74
2022/01/24 23:55:44;;;;;;;68.55;37.28;;;;;;;;;;5044489;27;95466;-74
2022/01/24 23:58:40;;;;;;;65.32;37.25;;;;;;;;;;5061217;27;95612;-75
